Time;durP1;ratioP1;P1;durP2;ratioP2;P2;SDS_P1;SDS_P2;PMS_P1;PMS_P2;Temp;Humidity;BMP_temperature;BMP_pressure;BME280_temperature;BME280_humidity;BME280_pressure;Samples;Min_cycle;Max_cycle;Signal;HPM_P1;HPM_P2
2021/08/24 00:04:19;;;;;;;12.25;10.88;;;;;;;16.96;77.21;98557.55;529714;1092;101641;-41
2021/08/24 00:14:25;;;;;;;;;;;;;;;16.86;77.63;98552.26;529749;1093;100920;-41
2021/08/24 00:24:33;;;;;;;14.27;11.90;;;;;;;16.83;77.60;98555.47;529748;1093;100975;-41
2021/08/24 00:34:40;;;;;;;15.13;13.53;;;;;;;16.84;77.63;98551.73;529691;1092;101018;-41
2021/08/24 00:44:49;;;;;;;17.53;14.78;;;;;;;16.78;77.87;98552.80;529678;1093;100638;-41
2021/08/24 00:54:57;;;;;;;17.93;15.43;;;;;;;16.78;78.07;98548.25;529675;1093;101710;-41
2021/08/24 01:05:05;;;;;;;18.78;14.73;;;;;;;16.78;78.48;98563.48;529680;1093;101077;-41
2021/08/24 01:15:22;;;;;;;18.68;15.83;;;;;;;16.76;78.32;98554.94;529754;1092;101148;-41
2021/08/24 01:25:37;;;;;;;18.07;14.47;;;;;;;16.75;78.54;98538.13;529710;1092;101028;-41
2021/08/24 01:36:09;;;;;;;21.17;14.57;;;;;;;16.78;78.83;98553.59;529714;1092;101671;-41
2021/08/24 01:46:23;;;;;;;19.30;14.87;;;;;;;16.85;78.81;98554.13;529631;1092;101897;-39
2021/08/24 01:56:32;;;;;;;17.83;13.50;;;;;;;16.83;78.70;98561.61;529708;1092;101131;-39
2021/08/24 02:06:44;;;;;;;8.70;3.97;;;;;;;16.27;79.93;98571.54;529708;1093;100970;-39
2021/08/24 02:16:53;;;;;;;5.23;2.30;;;;;;;15.70;80.70;98582.45;529665;1092;101176;-39
2021/08/24 02:27:04;;;;;;;6.43;2.98;;;;;;;15.31;81.51;98583.63;529722;1092;100694;-39
2021/08/24 02:37:18;;;;;;;3.40;2.73;;;;;;;15.07;81.96;98597.64;529647;1092;101572;-39
2021/08/24 02:47:25;;;;;;;4.43;3.00;;;;;;;14.87;82.67;98601.80;529715;1092;101046;-39
2021/08/24 02:57:58;;;;;;;3.17;2.97;;;;;;;14.78;82.88;98595.38;529683;1091;101083;-41
2021/08/24 03:08:06;;;;;;;3.87;2.90;;;;;;;14.69;83.33;98603.05;529741;1093;100987;-42
2021/08/24 03:18:15;;;;;;;3.47;3.17;;;;;;;14.58;83.75;98596.04;529677;1092;101093;-42
2021/08/24 03:28:25;;;;;;;5.50;2.95;;;;;;;14.57;83.57;98610.41;529693;1092;101603;-41
2021/08/24 03:38:32;;;;;;;7.00;3.67;;;;;;;14.46;84.04;98608.73;529734;1092;101062;-42
2021/08/24 03:48:40;;;;;;;3.55;2.43;;;;;;;14.34;84.72;98618.70;529747;1091;101260;-42
2021/08/24 03:58:48;;;;;;;3.43;2.50;;;;;;;14.34;84.52;98634.67;529662;1093;100694;-41
2021/08/24 04:08:55;;;;;;;3.75;2.20;;;;;;;14.33;84.57;98635.73;529709;1092;101035;-42
2021/08/24 04:19:03;;;;;;;3.47;2.13;;;;;;;14.29;84.55;98642.61;529643;1093;101648;-41
2021/08/24 04:29:11;;;;;;;2.93;2.63;;;;;;;14.28;84.65;98648.98;529742;1092;101024;-41
2021/08/24 04:39:19;;;;;;;3.10;2.30;;;;;;;14.24;84.77;98674.48;529689;1092;101251;-41
2021/08/24 04:49:27;;;;;;;4.10;2.27;;;;;;;14.25;84.84;98679.55;529719;1091;101077;-41
2021/08/24 04:59:34;;;;;;;3.40;2.50;;;;;;;14.16;84.84;98694.34;529763;1092;101067;-41
2021/08/24 05:09:42;;;;;;;6.63;2.20;;;;;;;14.14;84.85;98702.57;529707;1092;101872;-41
2021/08/24 05:19:50;;;;;;;3.20;1.85;;;;;;;14.07;85.09;98725.10;529728;1091;100939;-41
2021/08/24 05:30:00;;;;;;;5.23;2.50;;;;;;;13.90;84.97;98722.52;529686;1093;101115;-42
2021/08/24 05:40:10;;;;;;;2.60;1.87;;;;;;;13.81;85.32;98742.63;529718;1091;100989;-41
2021/08/24 05:50:18;;;;;;;2.87;2.37;;;;;;;13.78;85.72;98754.55;529729;1092;100957;-42
2021/08/24 06:00:27;;;;;;;2.73;2.07;;;;;;;13.70;85.62;98778.88;529712;1091;101933;-43
2021/08/24 06:10:38;;;;;;;2.17;2.00;;;;;;;13.72;85.91;98791.91;529732;1092;101026;-43
2021/08/24 06:20:45;;;;;;;2.93;1.67;;;;;;;13.70;85.99;98802.80;529705;1093;101263;-43
2021/08/24 06:30:53;;;;;;;2.70;1.37;;;;;;;13.63;86.65;98814.66;529704;1093;101128;-43
2021/08/24 06:41:01;;;;;;;1.67;1.57;;;;;;;13.59;86.55;98826.83;529757;1093;101719;-43
2021/08/24 06:51:09;;;;;;;2.53;2.13;;;;;;;13.55;86.59;98846.96;529671;1092;101129;-42
2021/08/24 07:01:18;;;;;;;2.25;2.03;;;;;;;13.49;86.78;98862.83;529694;1091;101075;-43
2021/08/24 07:11:28;;;;;;;4.37;1.83;;;;;;;13.55;86.87;98881.50;529746;1092;101135;-42
2021/08/24 07:21:34;;;;;;;;;;;;;;;13.61;87.02;98889.30;529676;1093;100924;-43
2021/08/24 07:31:41;;;;;;;1.67;1.57;;;;;;;13.61;87.00;98896.47;529772;1091;100713;-42
2021/08/24 07:41:49;;;;;;;2.70;2.37;;;;;;;13.62;87.28;98901.53;529695;1093;101465;-43
2021/08/24 07:51:56;;;;;;;1.95;1.85;;;;;;;13.65;87.33;98924.16;529678;1092;101053;-42
2021/08/24 08:02:04;;;;;;;3.00;2.47;;;;;;;13.73;87.32;98939.72;529745;1092;101026;-42
2021/08/24 08:12:13;;;;;;;3.83;3.38;;;;;;;13.85;87.15;98943.08;529687;1092;100724;-41
2021/08/24 08:22:20;;;;;;;4.73;4.23;;;;;;;13.95;87.54;98951.19;529744;1092;101038;-42
2021/08/24 08:32:31;;;;;;;8.83;5.25;;;;;;;14.17;87.15;98953.09;529690;1092;101730;-42
2021/08/24 08:42:47;;;;;;;6.00;4.20;;;;;;;14.28;86.95;98962.84;529719;1092;101037;-42
2021/08/24 08:53:05;;;;;;;6.43;4.97;;;;;;;14.39;86.77;98972.55;529732;1091;100778;-43
2021/08/24 09:14:05;;;;;;;8.60;5.77;;;;;;;14.51;86.84;98983.94;529714;1091;101030;-42
2021/08/24 09:24:17;;;;;;;5.63;4.43;;;;;;;14.86;86.52;98982.75;529731;1093;101903;-43
2021/08/24 09:34:29;;;;;;;5.93;5.10;;;;;;;14.95;86.30;98990.07;529739;1092;101083;-42
2021/08/24 09:44:37;;;;;;;6.63;5.00;;;;;;;15.08;86.71;98991.53;529664;1092;101040;-42
2021/08/24 09:54:52;;;;;;;6.10;5.13;;;;;;;15.02;85.99;99011.17;529704;1092;101221;-42
2021/08/24 10:05:01;;;;;;;5.47;4.97;;;;;;;15.03;85.83;99024.23;529804;1093;100931;-42
2021/08/24 10:15:28;;;;;;;7.17;4.60;;;;;;;15.14;85.38;99024.34;529698;1091;101901;-43
2021/08/24 10:25:42;;;;;;;6.05;3.65;;;;;;;15.21;85.55;99025.78;529634;1091;100992;-42
2021/08/24 10:35:58;;;;;;;4.43;4.03;;;;;;;15.29;85.01;99032.52;529785;1093;101073;-42
2021/08/24 10:56:22;;;;;;;8.93;4.30;;;;;;;15.07;84.63;99067.16;529776;1092;101056;-42
2021/08/24 11:06:28;;;;;;;7.40;5.33;;;;;;;14.83;84.58;99084.42;529711;1092;101904;-43
2021/08/24 11:16:50;;;;;;;7.63;4.90;;;;;;;14.49;84.35;99091.67;529702;1092;100992;-42
2021/08/24 11:27:04;;;;;;;4.87;4.37;;;;;;;14.09;84.52;99116.53;529677;1091;101283;-42
2021/08/24 11:37:14;;;;;;;5.77;4.20;;;;;;;14.00;84.52;99125.96;529741;1092;101067;-42
2021/08/24 11:47:24;;;;;;;8.53;4.37;;;;;;;13.92;84.43;99135.11;529706;1092;100889;-42
2021/08/24 11:57:40;;;;;;;6.43;3.77;;;;;;;14.01;84.56;99149.65;529676;1093;101875;-42
2021/08/24 12:07:56;;;;;;;7.73;3.90;;;;;;;14.04;84.33;99166.97;529728;1093;101223;-42
2021/08/24 12:18:08;;;;;;;8.40;4.37;;;;;;;14.21;84.66;99174.98;529758;1093;101100;-42
2021/08/24 12:28:38;;;;;;;7.33;4.10;;;;;;;14.29;84.03;99185.23;529739;1093;101053;-42
2021/08/24 12:38:49;;;;;;;5.00;3.27;;;;;;;14.29;84.28;99198.53;529722;1093;101126;-42
2021/08/24 12:49:33;;;;;;;8.90;3.83;;;;;;;14.32;84.15;99206.03;529737;1093;101655;-42
2021/08/24 12:59:42;;;;;;;5.83;3.60;;;;;;;14.37;84.00;99204.25;529706;1093;101021;-41
2021/08/24 13:09:49;;;;;;;10.35;4.35;;;;;;;14.65;84.03;99218.58;529743;1093;101075;-44
2021/08/24 13:20:01;;;;;;;5.47;2.80;;;;;;;14.78;83.70;99215.61;529738;1092;100961;-42
2021/08/24 13:30:16;;;;;;;3.13;2.23;;;;;;;14.79;83.06;99219.08;529721;1092;100946;-42
2021/08/24 13:40:31;;;;;;;3.60;2.60;;;;;;;14.92;82.80;99221.42;529696;1092;101954;-42
2021/08/24 13:50:41;;;;;;;4.23;2.47;;;;;;;15.27;82.41;99229.92;529744;1093;100759;-42
2021/08/24 14:01:03;;;;;;;4.00;2.17;;;;;;;15.31;81.75;99239.02;529716;1093;100720;-43
2021/08/24 14:11:12;;;;;;;3.80;1.80;;;;;;;15.37;81.01;99231.91;529703;1092;100996;-42
2021/08/24 14:21:20;;;;;;;3.38;2.30;;;;;;;15.47;80.40;99239.25;529721;1092;100840;-42
2021/08/24 14:31:33;;;;;;;4.60;2.70;;;;;;;15.55;80.04;99244.14;529655;1093;101618;-42
2021/08/24 14:41:50;;;;;;;5.57;2.20;;;;;;;15.76;79.68;99235.38;529767;1093;101205;-42
2021/08/24 14:51:59;;;;;;;7.13;2.50;;;;;;;15.80;78.99;99236.48;529765;1091;100953;-42
2021/08/24 15:02:20;;;;;;;5.60;2.45;;;;;;;15.97;78.87;99244.42;529756;1093;100957;-42
2021/08/24 15:12:52;;;;;;;5.83;2.67;;;;;;;16.00;78.75;99251.92;529692;1092;101038;-42
2021/08/24 15:23:05;;;;;;;10.05;2.53;;;;;;;16.08;78.44;99253.33;529760;1092;101846;-42
2021/08/24 15:33:30;;;;;;;4.23;1.90;;;;;;;16.19;78.26;99249.73;529760;1091;101002;-42
2021/08/24 15:43:39;;;;;;;6.77;2.17;;;;;;;16.25;77.62;99256.73;529711;1092;101227;-42
2021/08/24 15:53:46;;;;;;;8.40;2.95;;;;;;;16.11;77.56;99248.33;529713;1093;100979;-42
2021/08/24 16:03:54;;;;;;;3.33;2.03;;;;;;;16.02;77.46;99251.67;529721;1091;101094;-42
2021/08/24 16:14:02;;;;;;;5.37;2.40;;;;;;;16.07;77.34;99241.86;529696;1092;101626;-42
2021/08/24 16:24:10;;;;;;;4.67;2.17;;;;;;;16.08;77.28;99243.47;529742;1091;100923;-42
2021/08/24 16:34:20;;;;;;;4.57;2.57;;;;;;;16.07;77.16;99241.05;529722;1093;101054;-42
2021/08/24 16:44:28;;;;;;;4.47;1.80;;;;;;;15.98;75.70;99245.23;529725;1093;101017;-42
2021/08/24 16:54:36;;;;;;;3.37;2.10;;;;;;;15.76;75.46;99243.38;529726;1092;100766;-42
2021/08/24 17:04:42;;;;;;;;;;;;;;;15.64;75.74;99256.04;529715;1092;101599;-42
2021/08/24 17:14:50;;;;;;;3.90;2.73;;;;;;;15.52;75.97;99256.10;529749;1092;101030;-42
2021/08/24 17:24:58;;;;;;;4.27;2.27;;;;;;;15.29;76.15;99272.30;529699;1092;101008;-42
2021/08/24 17:35:06;;;;;;;4.60;2.20;;;;;;;15.16;75.79;99273.45;529734;1092;101006;-42
2021/08/24 17:45:16;;;;;;;2.30;2.00;;;;;;;15.02;75.89;99277.48;529740;1092;100980;-42
2021/08/24 17:55:27;;;;;;;5.60;2.53;;;;;;;14.78;75.93;99286.68;529678;1092;101527;-41
2021/08/24 18:15:49;;;;;;;10.60;2.80;;;;;;;14.12;76.11;99292.38;529748;1092;101163;-41
2021/08/24 18:25:57;;;;;;;6.78;2.63;;;;;;;13.80;76.26;99301.83;529714;1092;101016;-42
2021/08/24 18:36:05;;;;;;;4.53;3.17;;;;;;;13.60;76.69;99302.20;529751;1093;101081;-42
2021/08/24 18:46:13;;;;;;;13.80;5.27;;;;;;;13.26;76.70;99303.83;529731;1092;102381;-42
2021/08/24 18:56:24;;;;;;;7.60;5.50;;;;;;;12.74;76.83;99314.20;529726;1093;101046;-42
2021/08/24 19:06:32;;;;;;;9.77;6.40;;;;;;;12.54;77.07;99314.51;529748;1092;100989;-42
2021/08/24 19:16:40;;;;;;;9.87;6.10;;;;;;;12.52;77.41;99326.34;529634;1091;100996;-42
2021/08/24 19:26:49;;;;;;;13.28;6.38;;;;;;;12.48;77.38;99325.19;529744;1092;101053;-40
2021/08/24 19:36:56;;;;;;;11.50;6.53;;;;;;;12.49;78.04;99321.50;529722;1092;101605;-40
2021/08/24 19:47:05;;;;;;;12.90;8.70;;;;;;;12.47;78.09;99319.07;529669;1091;101060;-41
2021/08/24 19:57:11;;;;;;;;;;;;;;;12.45;78.46;99325.64;529754;1092;101011;-40
2021/08/24 20:07:19;;;;;;;12.20;8.13;;;;;;;12.27;78.42;99310.56;529710;1093;101105;-40
2021/08/24 20:17:27;;;;;;;15.27;7.60;;;;;;;12.34;78.60;99307.84;529684;1092;101119;-40
2021/08/24 20:27:34;;;;;;;13.83;7.23;;;;;;;12.41;78.76;99309.37;529723;1091;101884;-41
2021/08/24 20:37:43;;;;;;;13.93;6.73;;;;;;;12.60;79.10;99316.25;529740;1093;101002;-41
2021/08/24 20:47:50;;;;;;;10.23;6.10;;;;;;;12.59;78.64;99309.33;529714;1093;101063;-41
2021/08/24 20:57:57;;;;;;;10.13;6.40;;;;;;;12.46;79.06;99308.69;529714;1092;101405;-41
2021/08/24 21:08:06;;;;;;;16.48;7.43;;;;;;;12.19;78.99;99305.58;529721;1092;100967;-40
2021/08/24 21:18:38;;;;;;;14.53;9.87;;;;;;;11.89;78.77;99294.94;529756;1092;103581;-40
2021/08/24 21:28:46;;;;;;;16.47;7.43;;;;;;;11.69;78.96;99300.42;529700;1092;101245;-40
2021/08/24 21:38:55;;;;;;;13.27;7.30;;;;;;;11.67;79.17;99287.40;529737;1091;101504;-40
2021/08/24 21:49:04;;;;;;;12.30;7.07;;;;;;;11.68;79.00;99294.31;529700;1092;101044;-40
2021/08/24 21:59:12;;;;;;;20.27;9.07;;;;;;;11.68;79.33;99285.56;529741;1093;101079;-41
2021/08/24 22:09:20;;;;;;;30.77;12.80;;;;;;;11.88;79.54;99293.33;529672;1091;101886;-41
2021/08/24 22:19:27;;;;;;;20.80;12.00;;;;;;;12.04;79.89;99287.40;529756;1092;101095;-40
2021/08/24 22:29:35;;;;;;;19.60;9.80;;;;;;;12.09;79.92;99284.11;529699;1092;101054;-40
2021/08/24 22:39:43;;;;;;;14.20;7.95;;;;;;;12.03;79.83;99267.23;529697;1092;101280;-40
2021/08/24 22:49:55;;;;;;;21.93;9.80;;;;;;;11.88;79.29;99264.98;529700;1092;101057;-40
2021/08/24 23:00:02;;;;;;;18.37;8.77;;;;;;;12.00;79.69;99257.08;529672;1092;101938;-40
2021/08/24 23:10:10;;;;;;;10.47;6.83;;;;;;;11.98;79.39;99251.19;529809;1092;101008;-40
2021/08/24 23:20:18;;;;;;;16.93;9.17;;;;;;;12.13;79.53;99241.02;529730;1093;101020;-41
2021/08/24 23:30:26;;;;;;;16.87;9.70;;;;;;;12.14;79.77;99249.77;529690;1091;100938;-40
2021/08/24 23:40:34;;;;;;;16.27;8.60;;;;;;;12.19;79.92;99234.80;529710;1093;101035;-41
2021/08/24 23:50:42;;;;;;;12.30;5.57;;;;;;;12.26;79.76;99219.61;529716;1093;101572;-41
